Trenton, NJ

8:18 PM EST on February 01, 2015 (GMT -0500)
Morris Heights | Change Station
CLOSE
Current Station
Personal Weather Station
Location: Morrisville, PA
Elevation: 89 ft
Nearby Weather Stations
Active Advisory: Winter Weather Advisory Active Notice: Public Information Statement

Elev 89 ft 40.22 °N, 74.78 °W | Updated 8 seconds ago

Overcast
Overcast
36.2 °F
Feels Like 36 °F
N
0.3
Wind Variable Wind from SSE
Gusts 1.7 mph

Today
High -- | Low -- °F
--% Chance of Precip.
Yesterday
High -- | Low -- °F
Precip. -- in
7:08 AM 5:17 PM
Waxing Gibbous, 97% visible
Pressure 30.07 in
Visibility 8.0 miles
Clouds Mostly Cloudy 3600 ft
Overcast 4700 ft
Windchill 36 °F
Dew Point 27 °F
Humidity 70%
Rainfall 0.00 in
Snow Depth Not available.
UV 0 out of 12
Pollen .10 out of 12
Air Quality Not available.
Flu Activity Not available.
METAR KTTN 020053Z 08003KT 8SM BKN036 OVC047 02/M03 A3008 RMK AO2 SNE09 SLP182 P0000 T00171033

More Conditions Fewer Conditions

Pressure 30.07 in
Visibility 8.0 miles
Clouds Mostly Cloudy 3600 ft
Overcast 4700 ft
Windchill 36 °F
Dew Point 27 °F
Humidity 70%
Rainfall 0.00 in
Snow Depth Not available.
UV 0 out of 12
Pollen .10 out of 12
Air Quality Not available.
Flu Activity Not available.
METAR KTTN 020053Z 08003KT 8SM BKN036 OVC047 02/M03 A3008 RMK AO2 SNE09 SLP182 P0000 T00171033

More Conditions Fewer Conditions

Nowcast | as of 8:16 PM EST on February 1, 2015

Periods of snow will continue this evening in northern and central New Jersey along with a light accumulation in many locations. The snow will become steadier overnight. If you will be going out, be prepared for slippery conditions on area roads, walkways and parking lots.

×

10-Day Weather Forecast

Almanac

Astronomy

Feb. 01, 2015 Rise Set
Actual Time
Civil Twilight
Nautical Twilight
Astronomical Twilight
Moon
Length of Visible Light
Length of Day
Tomorrow will be .
, % of the Moon is Illuminated

Today's Extremes

State Highs State Lows

Community

WunderPhotos

Upload Photos

1,792,641 photos uploaded!

WunderBlogs® & News

Nearby

Air Quality

  Air Quality AQ Index Pollutant
Not available.

Snow Depth

Station Depth Elevation

Earthquake Activity

City Distance Mag. Time & Date
Minimum magnitude displayed is 2.5.

Coastal Water Temperatures

Place Temperature

Nearby Weather Stations